sensor_id;sensor_type;location;lat;lon;timestamp;pressure;altitude;pressure_sealevel;temperature;humidity
50302;BME280;36550;50.472;19.744;2023-02-16T00:00:32;98964.39;;;-1.94;84.39
50302;BME280;36550;50.472;19.744;2023-02-16T00:03:21;98958.58;;;-1.90;84.33
50302;BME280;36550;50.472;19.744;2023-02-16T00:06:05;98959.27;;;-1.88;84.22
50302;BME280;36550;50.472;19.744;2023-02-16T00:08:52;98957.73;;;-1.86;84.21
50302;BME280;36550;50.472;19.744;2023-02-16T00:11:37;98952.95;;;-1.85;84.22
50302;BME280;36550;50.472;19.744;2023-02-16T00:14:40;98946.64;;;-1.85;84.11
50302;BME280;36550;50.472;19.744;2023-02-16T00:17:23;98943.03;;;-1.87;83.99
50302;BME280;36550;50.472;19.744;2023-02-16T00:20:17;98936.45;;;-1.90;83.81
50302;BME280;36550;50.472;19.744;2023-02-16T00:23:00;98933.19;;;-1.98;83.63
50302;BME280;36550;50.472;19.744;2023-02-16T00:25:44;98930.91;;;-2.01;83.87
50302;BME280;36550;50.472;19.744;2023-02-16T00:28:29;98925.37;;;-2.05;84.13
50302;BME280;36550;50.472;19.744;2023-02-16T00:31:21;98923.66;;;-2.07;84.32
50302;BME280;36550;50.472;19.744;2023-02-16T00:37:10;98914.53;;;-2.06;84.81
50302;BME280;36550;50.472;19.744;2023-02-16T00:39:55;98912.06;;;-2.03;84.90
50302;BME280;36550;50.472;19.744;2023-02-16T00:42:39;98909.10;;;-2.03;84.83
50302;BME280;36550;50.472;19.744;2023-02-16T00:45:24;98902.23;;;-2.03;84.65
50302;BME280;36550;50.472;19.744;2023-02-16T00:48:09;98897.94;;;-2.01;84.68
50302;BME280;36550;50.472;19.744;2023-02-16T00:50:53;98895.11;;;-1.96;84.90
50302;BME280;36550;50.472;19.744;2023-02-16T00:53:37;98887.70;;;-1.89;85.21
50302;BME280;36550;50.472;19.744;2023-02-16T00:56:21;98886.96;;;-1.81;85.42
50302;BME280;36550;50.472;19.744;2023-02-16T00:59:07;98884.39;;;-1.75;85.46
50302;BME280;36550;50.472;19.744;2023-02-16T01:01:54;98881.23;;;-1.68;85.58
50302;BME280;36550;50.472;19.744;2023-02-16T01:04:39;98881.39;;;-1.66;85.61
50302;BME280;36550;50.472;19.744;2023-02-16T01:07:24;98878.70;;;-1.63;85.67
50302;BME280;36550;50.472;19.744;2023-02-16T01:10:27;98873.80;;;-1.62;85.66
50302;BME280;36550;50.472;19.744;2023-02-16T01:13:30;98873.34;;;-1.61;85.95
50302;BME280;36550;50.472;19.744;2023-02-16T01:16:21;98874.04;;;-1.57;86.21
50302;BME280;36550;50.472;19.744;2023-02-16T01:19:05;98870.95;;;-1.53;86.55
50302;BME280;36550;50.472;19.744;2023-02-16T01:21:49;98874.70;;;-1.45;86.84
50302;BME280;36550;50.472;19.744;2023-02-16T01:24:33;98870.38;;;-1.37;86.96
50302;BME280;36550;50.472;19.744;2023-02-16T01:27:17;98869.45;;;-1.30;86.95
50302;BME280;36550;50.472;19.744;2023-02-16T01:30:01;98865.23;;;-1.23;86.88
50302;BME280;36550;50.472;19.744;2023-02-16T01:32:45;98856.98;;;-1.17;86.91
50302;BME280;36550;50.472;19.744;2023-02-16T01:35:34;98853.94;;;-1.08;87.03
50302;BME280;36550;50.472;19.744;2023-02-16T01:38:21;98850.01;;;-1.01;86.96
50302;BME280;36550;50.472;19.744;2023-02-16T01:41:08;98840.84;;;-0.95;87.02
50302;BME280;36550;50.472;19.744;2023-02-16T01:44:36;98832.55;;;-0.88;86.92
50302;BME280;36550;50.472;19.744;2023-02-16T01:47:33;98823.33;;;-0.85;86.89
50302;BME280;36550;50.472;19.744;2023-02-16T01:50:25;98817.40;;;-0.84;86.69
50302;BME280;36550;50.472;19.744;2023-02-16T01:53:20;98814.52;;;-0.81;86.48
50302;BME280;36550;50.472;19.744;2023-02-16T01:56:14;98810.95;;;-0.74;86.55
50302;BME280;36550;50.472;19.744;2023-02-16T01:59:04;98807.42;;;-0.65;86.75
50302;BME280;36550;50.472;19.744;2023-02-16T02:01:57;98801.42;;;-0.58;86.68
50302;BME280;36550;50.472;19.744;2023-02-16T02:07:54;98800.00;;;-0.50;86.77
50302;BME280;36550;50.472;19.744;2023-02-16T02:11:19;98801.30;;;-0.47;86.69
50302;BME280;36550;50.472;19.744;2023-02-16T02:14:12;98801.94;;;-0.47;86.53
50302;BME280;36550;50.472;19.744;2023-02-16T02:17:06;98807.92;;;-0.47;86.60
50302;BME280;36550;50.472;19.744;2023-02-16T02:23:20;98816.48;;;-0.41;86.21
50302;BME280;36550;50.472;19.744;2023-02-16T02:44:54;98810.98;;;-0.19;86.12
50302;BME280;36550;50.472;19.744;2023-02-16T02:47:43;98815.36;;;-0.12;85.96
50302;BME280;36550;50.472;19.744;2023-02-16T02:50:38;98819.85;;;-0.09;85.80
50302;BME280;36550;50.472;19.744;2023-02-16T02:53:23;98821.34;;;-0.08;85.55
50302;BME280;36550;50.472;19.744;2023-02-16T02:56:08;98820.35;;;-0.11;85.46
50302;BME280;36550;50.472;19.744;2023-02-16T02:59:13;98818.59;;;-0.13;85.35
50302;BME280;36550;50.472;19.744;2023-02-16T03:02:16;98814.20;;;-0.16;85.41
50302;BME280;36550;50.472;19.744;2023-02-16T03:05:03;98811.68;;;-0.19;85.45
50302;BME280;36550;50.472;19.744;2023-02-16T03:07:51;98812.34;;;-0.18;85.39
50302;BME280;36550;50.472;19.744;2023-02-16T03:14:05;98809.89;;;-0.15;85.24
50302;BME280;36550;50.472;19.744;2023-02-16T03:16:54;98808.52;;;-0.13;85.17
50302;BME280;36550;50.472;19.744;2023-02-16T03:20:00;98807.13;;;-0.11;85.23
50302;BME280;36550;50.472;19.744;2023-02-16T03:23:05;98800.73;;;-0.09;85.25
50302;BME280;36550;50.472;19.744;2023-02-16T03:26:09;98800.35;;;-0.05;85.32
50302;BME280;36550;50.472;19.744;2023-02-16T03:29:13;98797.69;;;-0.02;85.31
50302;BME280;36550;50.472;19.744;2023-02-16T03:32:01;98801.34;;;0.01;85.17
50302;BME280;36550;50.472;19.744;2023-02-16T03:34:45;98802.88;;;0.07;85.06
50302;BME280;36550;50.472;19.744;2023-02-16T03:37:30;98806.84;;;0.10;84.89
50302;BME280;36550;50.472;19.744;2023-02-16T03:40:16;98805.06;;;0.13;84.56
50302;BME280;36550;50.472;19.744;2023-02-16T03:43:12;98800.95;;;0.14;84.54
50302;BME280;36550;50.472;19.744;2023-02-16T03:45:56;98797.67;;;0.13;84.46
50302;BME280;36550;50.472;19.744;2023-02-16T03:48:40;98796.48;;;0.09;84.42
50302;BME280;36550;50.472;19.744;2023-02-16T03:51:24;98799.30;;;0.08;84.51
50302;BME280;36550;50.472;19.744;2023-02-16T03:54:08;98798.27;;;0.07;84.37
50302;BME280;36550;50.472;19.744;2023-02-16T03:56:52;98795.52;;;0.06;84.30
50302;BME280;36550;50.472;19.744;2023-02-16T03:59:35;98792.41;;;0.06;84.16
50302;BME280;36550;50.472;19.744;2023-02-16T04:02:19;98791.38;;;0.09;84.10
50302;BME280;36550;50.472;19.744;2023-02-16T04:05:03;98791.75;;;0.10;84.12
50302;BME280;36550;50.472;19.744;2023-02-16T04:07:47;98795.20;;;0.10;84.07
50302;BME280;36550;50.472;19.744;2023-02-16T04:10:31;98795.35;;;0.08;84.06
50302;BME280;36550;50.472;19.744;2023-02-16T04:13:16;98786.15;;;0.05;83.95
50302;BME280;36550;50.472;19.744;2023-02-16T04:16:00;98781.56;;;0.05;83.99
50302;BME280;36550;50.472;19.744;2023-02-16T04:18:43;98784.68;;;0.03;84.02
50302;BME280;36550;50.472;19.744;2023-02-16T04:21:27;98782.92;;;0.01;83.95
50302;BME280;36550;50.472;19.744;2023-02-16T04:24:10;98785.58;;;0.02;83.92
50302;BME280;36550;50.472;19.744;2023-02-16T04:26:54;98785.58;;;0.04;83.82
50302;BME280;36550;50.472;19.744;2023-02-16T04:29:38;98781.94;;;0.04;83.73
50302;BME280;36550;50.472;19.744;2023-02-16T04:32:22;98785.41;;;0.06;83.78
50302;BME280;36550;50.472;19.744;2023-02-16T04:35:07;98783.73;;;0.09;83.89
50302;BME280;36550;50.472;19.744;2023-02-16T04:37:51;98785.98;;;0.11;83.99
50302;BME280;36550;50.472;19.744;2023-02-16T04:40:34;98779.71;;;0.10;83.99
50302;BME280;36550;50.472;19.744;2023-02-16T04:43:18;98776.89;;;0.09;83.99
50302;BME280;36550;50.472;19.744;2023-02-16T04:46:02;98778.77;;;0.05;83.85
50302;BME280;36550;50.472;19.744;2023-02-16T04:48:46;98777.12;;;0.01;83.81
50302;BME280;36550;50.472;19.744;2023-02-16T04:51:30;98775.41;;;-0.01;83.77
50302;BME280;36550;50.472;19.744;2023-02-16T04:54:14;98774.91;;;-0.01;83.60
50302;BME280;36550;50.472;19.744;2023-02-16T04:56:59;98778.00;;;-0.01;83.55
50302;BME280;36550;50.472;19.744;2023-02-16T04:59:42;98780.73;;;-0.03;83.47
50302;BME280;36550;50.472;19.744;2023-02-16T05:02:26;98773.63;;;-0.06;83.44
50302;BME280;36550;50.472;19.744;2023-02-16T05:05:10;98770.59;;;-0.10;83.44
50302;BME280;36550;50.472;19.744;2023-02-16T05:07:54;98765.95;;;-0.12;83.56
50302;BME280;36550;50.472;19.744;2023-02-16T05:10:38;98764.36;;;-0.15;83.54
50302;BME280;36550;50.472;19.744;2023-02-16T05:13:22;98763.71;;;-0.19;83.59
50302;BME280;36550;50.472;19.744;2023-02-16T05:16:25;98771.94;;;-0.24;83.54
50302;BME280;36550;50.472;19.744;2023-02-16T05:19:09;98772.41;;;-0.29;83.51
50302;BME280;36550;50.472;19.744;2023-02-16T05:21:53;98776.09;;;-0.32;83.49
50302;BME280;36550;50.472;19.744;2023-02-16T05:24:37;98779.14;;;-0.31;83.39
50302;BME280;36550;50.472;19.744;2023-02-16T05:27:25;98777.85;;;-0.30;83.50
50302;BME280;36550;50.472;19.744;2023-02-16T05:30:10;98775.92;;;-0.28;83.59
50302;BME280;36550;50.472;19.744;2023-02-16T05:32:55;98779.27;;;-0.26;83.71
50302;BME280;36550;50.472;19.744;2023-02-16T05:35:38;98780.45;;;-0.25;83.86
50302;BME280;36550;50.472;19.744;2023-02-16T05:38:22;98778.98;;;-0.26;84.01
50302;BME280;36550;50.472;19.744;2023-02-16T05:41:06;98777.28;;;-0.28;84.03
50302;BME280;36550;50.472;19.744;2023-02-16T05:44:00;98779.42;;;-0.31;83.98
50302;BME280;36550;50.472;19.744;2023-02-16T05:46:45;98786.59;;;-0.30;84.02
50302;BME280;36550;50.472;19.744;2023-02-16T05:49:29;98783.65;;;-0.30;84.11
50302;BME280;36550;50.472;19.744;2023-02-16T05:52:13;98781.04;;;-0.30;84.12
50302;BME280;36550;50.472;19.744;2023-02-16T05:54:57;98779.77;;;-0.29;84.04
50302;BME280;36550;50.472;19.744;2023-02-16T05:57:41;98782.92;;;-0.28;84.06
50302;BME280;36550;50.472;19.744;2023-02-16T06:00:24;98781.64;;;-0.29;84.22
50302;BME280;36550;50.472;19.744;2023-02-16T06:03:09;98780.96;;;-0.29;84.31
50302;BME280;36550;50.472;19.744;2023-02-16T06:05:58;98779.71;;;-0.28;84.35
50302;BME280;36550;50.472;19.744;2023-02-16T06:08:43;98776.40;;;-0.26;84.32
50302;BME280;36550;50.472;19.744;2023-02-16T06:11:27;98776.90;;;-0.22;84.27
50302;BME280;36550;50.472;19.744;2023-02-16T06:14:20;98783.63;;;-0.17;84.16
50302;BME280;36550;50.472;19.744;2023-02-16T06:17:03;98780.41;;;-0.12;84.08
50302;BME280;36550;50.472;19.744;2023-02-16T06:19:47;98782.94;;;-0.08;84.08
50302;BME280;36550;50.472;19.744;2023-02-16T06:22:31;98782.38;;;-0.06;84.09
50302;BME280;36550;50.472;19.744;2023-02-16T06:25:15;98783.27;;;-0.04;84.08
50302;BME280;36550;50.472;19.744;2023-02-16T06:28:01;98787.13;;;-0.02;84.14
50302;BME280;36550;50.472;19.744;2023-02-16T06:30:45;98797.99;;;0.02;84.20
50302;BME280;36550;50.472;19.744;2023-02-16T06:33:29;98797.08;;;0.04;84.04
50302;BME280;36550;50.472;19.744;2023-02-16T06:36:14;98801.67;;;0.10;84.09
50302;BME280;36550;50.472;19.744;2023-02-16T06:38:58;98802.64;;;0.16;83.92
50302;BME280;36550;50.472;19.744;2023-02-16T06:41:42;98809.73;;;0.23;83.91
50302;BME280;36550;50.472;19.744;2023-02-16T06:44:25;98819.35;;;0.31;83.89
50302;BME280;36550;50.472;19.744;2023-02-16T06:47:09;98819.32;;;0.34;83.80
50302;BME280;36550;50.472;19.744;2023-02-16T06:49:54;98820.45;;;0.39;83.87
50302;BME280;36550;50.472;19.744;2023-02-16T06:52:38;98818.95;;;0.42;83.81
50302;BME280;36550;50.472;19.744;2023-02-16T06:55:22;98818.72;;;0.44;83.82
50302;BME280;36550;50.472;19.744;2023-02-16T06:58:06;98818.10;;;0.49;83.73
50302;BME280;36550;50.472;19.744;2023-02-16T07:00:53;98814.25;;;0.55;83.64
50302;BME280;36550;50.472;19.744;2023-02-16T07:03:37;98803.92;;;0.60;83.59
50302;BME280;36550;50.472;19.744;2023-02-16T07:06:24;98809.95;;;0.67;83.60
50302;BME280;36550;50.472;19.744;2023-02-16T07:09:08;98807.98;;;0.73;83.66
50302;BME280;36550;50.472;19.744;2023-02-16T07:11:52;98804.63;;;0.78;83.71
50302;BME280;36550;50.472;19.744;2023-02-16T07:14:36;98801.08;;;0.82;83.69
50302;BME280;36550;50.472;19.744;2023-02-16T07:17:20;98801.35;;;0.88;83.72
50302;BME280;36550;50.472;19.744;2023-02-16T07:20:05;98802.10;;;0.96;83.64
50302;BME280;36550;50.472;19.744;2023-02-16T07:22:49;98810.27;;;1.06;83.55
50302;BME280;36550;50.472;19.744;2023-02-16T07:25:33;98806.02;;;1.16;83.49
50302;BME280;36550;50.472;19.744;2023-02-16T07:28:17;98805.07;;;1.27;83.46
50302;BME280;36550;50.472;19.744;2023-02-16T07:31:13;98801.45;;;1.35;83.35
50302;BME280;36550;50.472;19.744;2023-02-16T07:33:58;98803.80;;;1.44;83.17
50302;BME280;36550;50.472;19.744;2023-02-16T07:36:41;98802.89;;;1.52;83.13
50302;BME280;36550;50.472;19.744;2023-02-16T07:39:27;98807.55;;;1.60;82.97
50302;BME280;36550;50.472;19.744;2023-02-16T07:42:13;98805.70;;;1.68;82.86
50302;BME280;36550;50.472;19.744;2023-02-16T07:44:57;98802.00;;;1.78;82.55
50302;BME280;36550;50.472;19.744;2023-02-16T07:47:41;98801.18;;;1.89;82.56
50302;BME280;36550;50.472;19.744;2023-02-16T07:50:25;98797.75;;;2.00;82.48
50302;BME280;36550;50.472;19.744;2023-02-16T07:53:09;98800.48;;;2.09;82.25
50302;BME280;36550;50.472;19.744;2023-02-16T07:55:53;98801.06;;;2.15;82.00
50302;BME280;36550;50.472;19.744;2023-02-16T07:58:37;98801.30;;;2.21;81.90
50302;BME280;36550;50.472;19.744;2023-02-16T08:01:20;98797.89;;;2.25;81.83
50302;BME280;36550;50.472;19.744;2023-02-16T08:04:04;98802.20;;;2.30;81.77
50302;BME280;36550;50.472;19.744;2023-02-16T08:06:49;98802.70;;;2.37;81.66
50302;BME280;36550;50.472;19.744;2023-02-16T08:09:34;98800.04;;;2.44;81.40
50302;BME280;36550;50.472;19.744;2023-02-16T08:12:18;98792.30;;;2.54;81.44
50302;BME280;36550;50.472;19.744;2023-02-16T08:15:03;98786.88;;;2.63;81.52
50302;BME280;36550;50.472;19.744;2023-02-16T08:17:47;98783.31;;;2.70;81.31
50302;BME280;36550;50.472;19.744;2023-02-16T08:20:31;98786.08;;;2.78;81.27
50302;BME280;36550;50.472;19.744;2023-02-16T08:23:15;98782.83;;;2.86;81.06
50302;BME280;36550;50.472;19.744;2023-02-16T08:26:06;98779.54;;;2.93;80.65
50302;BME280;36550;50.472;19.744;2023-02-16T08:28:52;98781.39;;;2.99;80.81
50302;BME280;36550;50.472;19.744;2023-02-16T08:31:37;98777.99;;;3.05;80.56
50302;BME280;36550;50.472;19.744;2023-02-16T08:34:23;98778.83;;;3.15;80.35
50302;BME280;36550;50.472;19.744;2023-02-16T08:37:11;98784.89;;;3.24;80.03
50302;BME280;36550;50.472;19.744;2023-02-16T08:39:55;98783.11;;;3.33;79.98
50302;BME280;36550;50.472;19.744;2023-02-16T08:42:43;98787.45;;;3.41;79.88
50302;BME280;36550;50.472;19.744;2023-02-16T08:45:27;98789.14;;;3.47;79.91
50302;BME280;36550;50.472;19.744;2023-02-16T08:48:12;98792.93;;;3.56;80.16
50302;BME280;36550;50.472;19.744;2023-02-16T08:50:57;98795.52;;;3.63;79.98
50302;BME280;36550;50.472;19.744;2023-02-16T08:53:41;98797.60;;;3.70;79.83
50302;BME280;36550;50.472;19.744;2023-02-16T08:56:25;98799.47;;;3.75;79.67
50302;BME280;36550;50.472;19.744;2023-02-16T08:59:09;98800.89;;;3.83;79.68
50302;BME280;36550;50.472;19.744;2023-02-16T09:01:54;98800.74;;;3.88;79.09
50302;BME280;36550;50.472;19.744;2023-02-16T09:04:37;98800.85;;;3.92;78.92
50302;BME280;36550;50.472;19.744;2023-02-16T09:07:21;98797.73;;;3.93;78.76
50302;BME280;36550;50.472;19.744;2023-02-16T09:10:05;98798.23;;;3.95;78.62
50302;BME280;36550;50.472;19.744;2023-02-16T09:12:49;98800.27;;;3.98;78.61
50302;BME280;36550;50.472;19.744;2023-02-16T09:15:33;98796.44;;;4.06;78.79
50302;BME280;36550;50.472;19.744;2023-02-16T09:18:17;98799.94;;;4.17;78.97
50302;BME280;36550;50.472;19.744;2023-02-16T09:21:09;98800.91;;;4.27;78.86
50302;BME280;36550;50.472;19.744;2023-02-16T09:23:54;98802.27;;;4.36;78.85
50302;BME280;36550;50.472;19.744;2023-02-16T09:26:39;98800.58;;;4.45;78.62
50302;BME280;36550;50.472;19.744;2023-02-16T09:29:25;98799.48;;;4.55;78.25
50302;BME280;36550;50.472;19.744;2023-02-16T09:32:09;98804.67;;;4.64;78.31
50302;BME280;36550;50.472;19.744;2023-02-16T09:34:54;98805.27;;;4.74;78.33
50302;BME280;36550;50.472;19.744;2023-02-16T09:37:37;98806.80;;;4.83;77.99
50302;BME280;36550;50.472;19.744;2023-02-16T09:40:22;98802.92;;;4.91;77.54
50302;BME280;36550;50.472;19.744;2023-02-16T09:43:26;98805.41;;;5.00;77.61
50302;BME280;36550;50.472;19.744;2023-02-16T09:46:17;98804.61;;;5.14;77.22
50302;BME280;36550;50.472;19.744;2023-02-16T09:49:03;98809.47;;;5.24;77.15
50302;BME280;36550;50.472;19.744;2023-02-16T09:51:48;98804.94;;;5.36;77.46
50302;BME280;36550;50.472;19.744;2023-02-16T09:54:45;98803.62;;;5.46;76.42
50302;BME280;36550;50.472;19.744;2023-02-16T10:04:26;98804.92;;;5.85;77.22
50302;BME280;36550;50.472;19.744;2023-02-16T10:09:48;98799.45;;;6.19;76.32
50302;BME280;36550;50.472;19.744;2023-02-16T10:12:42;98796.36;;;6.33;76.33
50302;BME280;36550;50.472;19.744;2023-02-16T10:15:30;98799.11;;;6.45;76.38
50302;BME280;36550;50.472;19.744;2023-02-16T10:18:27;98799.94;;;6.55;76.27
50302;BME280;36550;50.472;19.744;2023-02-16T10:21:16;98801.16;;;6.62;75.71
50302;BME280;36550;50.472;19.744;2023-02-16T10:24:04;98800.37;;;6.69;75.55
50302;BME280;36550;50.472;19.744;2023-02-16T10:27:01;98790.05;;;6.72;74.56
50302;BME280;36550;50.472;19.744;2023-02-16T10:29:45;98784.98;;;6.78;74.89
50302;BME280;36550;50.472;19.744;2023-02-16T10:32:34;98782.90;;;6.85;75.18
50302;BME280;36550;50.472;19.744;2023-02-16T10:41:43;98771.75;;;6.98;73.08
50302;BME280;36550;50.472;19.744;2023-02-16T10:44:39;98772.30;;;6.96;72.78
50302;BME280;36550;50.472;19.744;2023-02-16T10:47:34;98766.33;;;6.98;73.48
50302;BME280;36550;50.472;19.744;2023-02-16T10:50:24;98757.60;;;7.01;72.26
50302;BME280;36550;50.472;19.744;2023-02-16T10:53:18;98756.61;;;7.05;72.77
50302;BME280;36550;50.472;19.744;2023-02-16T10:56:34;98750.96;;;7.08;71.87
50302;BME280;36550;50.472;19.744;2023-02-16T11:02:29;98736.08;;;7.19;72.73
50302;BME280;36550;50.472;19.744;2023-02-16T11:05:33;98732.48;;;7.23;71.83
50302;BME280;36550;50.472;19.744;2023-02-16T11:08:17;98727.55;;;7.28;71.29
50302;BME280;36550;50.472;19.744;2023-02-16T11:11:08;98729.71;;;7.33;71.95
50302;BME280;36550;50.472;19.744;2023-02-16T11:14:21;98718.02;;;7.37;70.91
50302;BME280;36550;50.472;19.744;2023-02-16T11:17:09;98710.39;;;7.43;70.84
50302;BME280;36550;50.472;19.744;2023-02-16T11:19:59;98707.66;;;7.47;71.06
50302;BME280;36550;50.472;19.744;2023-02-16T11:22:43;98703.21;;;7.52;70.72
50302;BME280;36550;50.472;19.744;2023-02-16T11:25:27;98693.29;;;7.54;70.64
50302;BME280;36550;50.472;19.744;2023-02-16T11:28:46;98695.70;;;7.54;69.88
50302;BME280;36550;50.472;19.744;2023-02-16T11:31:35;98698.09;;;7.56;70.77
50302;BME280;36550;50.472;19.744;2023-02-16T11:37:32;98695.55;;;7.62;70.67
50302;BME280;36550;50.472;19.744;2023-02-16T11:40:25;98695.80;;;7.64;70.47
50302;BME280;36550;50.472;19.744;2023-02-16T11:43:15;98692.48;;;7.66;70.08
50302;BME280;36550;50.472;19.744;2023-02-16T11:48:49;98691.85;;;7.58;69.18
50302;BME280;36550;50.472;19.744;2023-02-16T11:51:33;98689.19;;;7.57;69.38
50302;BME280;36550;50.472;19.744;2023-02-16T11:54:18;98686.73;;;7.58;69.19
50302;BME280;36550;50.472;19.744;2023-02-16T11:57:05;98690.20;;;7.59;69.25
50302;BME280;36550;50.472;19.744;2023-02-16T11:59:52;98687.70;;;7.58;69.02
50302;BME280;36550;50.472;19.744;2023-02-16T12:08:57;98679.10;;;7.65;68.87
50302;BME280;36550;50.472;19.744;2023-02-16T12:15:17;98673.14;;;7.69;68.58
50302;BME280;36550;50.472;19.744;2023-02-16T12:27:42;98662.91;;;7.95;68.54
50302;BME280;36550;50.472;19.744;2023-02-16T12:30:37;98662.63;;;7.97;67.85
50302;BME280;36550;50.472;19.744;2023-02-16T12:46:27;98658.52;;;8.04;67.71
50302;BME280;36550;50.472;19.744;2023-02-16T12:49:21;98657.01;;;8.03;67.02
50302;BME280;36550;50.472;19.744;2023-02-16T12:52:37;98651.48;;;8.03;67.25
50302;BME280;36550;50.472;19.744;2023-02-16T12:55:41;98647.43;;;8.04;66.78
50302;BME280;36550;50.472;19.744;2023-02-16T12:58:33;98644.29;;;8.03;66.96
50302;BME280;36550;50.472;19.744;2023-02-16T13:01:27;98642.64;;;8.06;67.61
50302;BME280;36550;50.472;19.744;2023-02-16T13:04:38;98637.50;;;8.09;67.20
50302;BME280;36550;50.472;19.744;2023-02-16T13:07:44;98633.36;;;8.15;67.25
50302;BME280;36550;50.472;19.744;2023-02-16T13:10:49;98629.76;;;8.19;67.33
50302;BME280;36550;50.472;19.744;2023-02-16T13:13:36;98628.11;;;8.25;67.30
50302;BME280;36550;50.472;19.744;2023-02-16T13:16:36;98628.94;;;8.30;67.66
50302;BME280;36550;50.472;19.744;2023-02-16T13:19:22;98630.05;;;8.38;67.56
50302;BME280;36550;50.472;19.744;2023-02-16T13:22:22;98631.52;;;8.45;66.04
50302;BME280;36550;50.472;19.744;2023-02-16T13:31:31;98618.45;;;8.57;63.49
50302;BME280;36550;50.472;19.744;2023-02-16T13:34:51;98616.20;;;8.57;64.47
50302;BME280;36550;50.472;19.744;2023-02-16T13:38:11;98611.31;;;8.58;64.28
50302;BME280;36550;50.472;19.744;2023-02-16T13:44:09;98610.73;;;8.65;64.09
50302;BME280;36550;50.472;19.744;2023-02-16T13:46:55;98612.10;;;8.68;65.11
50302;BME280;36550;50.472;19.744;2023-02-16T13:49:40;98608.78;;;8.71;64.83
50302;BME280;36550;50.472;19.744;2023-02-16T13:55:26;98612.45;;;8.70;63.56
50302;BME280;36550;50.472;19.744;2023-02-16T14:00:56;98607.39;;;8.65;62.58
50302;BME280;36550;50.472;19.744;2023-02-16T14:03:41;98609.16;;;8.64;62.94
50302;BME280;36550;50.472;19.744;2023-02-16T14:12:01;98607.20;;;8.59;63.80
50302;BME280;36550;50.472;19.744;2023-02-16T14:17:36;98603.13;;;8.51;64.57
50302;BME280;36550;50.472;19.744;2023-02-16T14:23:04;98607.98;;;8.43;64.28
50302;BME280;36550;50.472;19.744;2023-02-16T14:26:00;98613.16;;;8.35;64.09
50302;BME280;36550;50.472;19.744;2023-02-16T14:31:43;98617.61;;;8.20;64.49
50302;BME280;36550;50.472;19.744;2023-02-16T14:35:18;98612.77;;;8.08;63.80
50302;BME280;36550;50.472;19.744;2023-02-16T14:38:04;98610.40;;;7.95;64.37
50302;BME280;36550;50.472;19.744;2023-02-16T14:40:52;98608.03;;;7.84;64.13
50302;BME280;36550;50.472;19.744;2023-02-16T14:43:46;98609.80;;;7.75;64.27
50302;BME280;36550;50.472;19.744;2023-02-16T14:46:41;98608.35;;;7.64;64.57
50302;BME280;36550;50.472;19.744;2023-02-16T14:52:50;98602.63;;;7.46;65.19
50302;BME280;36550;50.472;19.744;2023-02-16T14:58:56;98603.20;;;7.30;65.61
50302;BME280;36550;50.472;19.744;2023-02-16T15:01:44;98603.10;;;7.20;65.78
50302;BME280;36550;50.472;19.744;2023-02-16T15:04:30;98600.56;;;7.11;65.82
50302;BME280;36550;50.472;19.744;2023-02-16T15:07:14;98600.66;;;7.04;66.17
50302;BME280;36550;50.472;19.744;2023-02-16T15:10:02;98595.41;;;6.96;66.30
50302;BME280;36550;50.472;19.744;2023-02-16T15:12:47;98595.91;;;6.86;66.34
50302;BME280;36550;50.472;19.744;2023-02-16T15:15:44;98594.66;;;6.76;66.61
50302;BME280;36550;50.472;19.744;2023-02-16T15:18:37;98592.17;;;6.65;66.65
50302;BME280;36550;50.472;19.744;2023-02-16T15:21:25;98591.86;;;6.54;66.89
50302;BME280;36550;50.472;19.744;2023-02-16T15:24:22;98590.95;;;6.44;66.99
50302;BME280;36550;50.472;19.744;2023-02-16T15:27:19;98588.52;;;6.37;67.20
50302;BME280;36550;50.472;19.744;2023-02-16T15:30:24;98589.64;;;6.31;67.45
50302;BME280;36550;50.472;19.744;2023-02-16T15:33:25;98591.56;;;6.24;67.62
50302;BME280;36550;50.472;19.744;2023-02-16T15:36:12;98592.55;;;6.16;67.77
50302;BME280;36550;50.472;19.744;2023-02-16T15:39:00;98590.22;;;6.07;67.95
50302;BME280;36550;50.472;19.744;2023-02-16T15:41:47;98591.64;;;5.98;68.21
50302;BME280;36550;50.472;19.744;2023-02-16T15:44:34;98594.39;;;5.88;68.31
50302;BME280;36550;50.472;19.744;2023-02-16T15:47:24;98595.67;;;5.79;68.35
50302;BME280;36550;50.472;19.744;2023-02-16T15:50:12;98598.84;;;5.69;68.50
50302;BME280;36550;50.472;19.744;2023-02-16T15:52:55;98601.01;;;5.58;68.63
50302;BME280;36550;50.472;19.744;2023-02-16T15:55:44;98604.27;;;5.47;68.60
50302;BME280;36550;50.472;19.744;2023-02-16T15:58:30;98606.00;;;5.36;68.72
50302;BME280;36550;50.472;19.744;2023-02-16T16:01:22;98603.38;;;5.21;68.67
50302;BME280;36550;50.472;19.744;2023-02-16T16:04:22;98597.52;;;5.08;68.85
50302;BME280;36550;50.472;19.744;2023-02-16T16:07:11;98598.48;;;4.93;68.96
50302;BME280;36550;50.472;19.744;2023-02-16T16:09:57;98592.45;;;4.79;69.01
50302;BME280;36550;50.472;19.744;2023-02-16T16:12:43;98591.86;;;4.70;69.12
50302;BME280;36550;50.472;19.744;2023-02-16T16:15:28;98592.70;;;4.61;69.28
50302;BME280;36550;50.472;19.744;2023-02-16T16:24:08;98589.77;;;4.31;69.63
50302;BME280;36550;50.472;19.744;2023-02-16T16:26:55;98592.86;;;4.21;69.75
50302;BME280;36550;50.472;19.744;2023-02-16T16:29:45;98590.84;;;4.09;70.04
50302;BME280;36550;50.472;19.744;2023-02-16T16:32:29;98596.44;;;3.97;70.12
50302;BME280;36550;50.472;19.744;2023-02-16T16:35:39;98600.71;;;3.86;70.19
50302;BME280;36550;50.472;19.744;2023-02-16T16:38:28;98597.58;;;3.73;70.32
50302;BME280;36550;50.472;19.744;2023-02-16T16:41:26;98603.46;;;3.60;70.61
50302;BME280;36550;50.472;19.744;2023-02-16T16:44:43;98604.77;;;3.49;70.61
50302;BME280;36550;50.472;19.744;2023-02-16T16:47:35;98605.92;;;3.32;70.56
50302;BME280;36550;50.472;19.744;2023-02-16T16:56:13;98609.20;;;2.98;70.68
50302;BME280;36550;50.472;19.744;2023-02-16T16:58:57;98606.69;;;2.89;71.08
50302;BME280;36550;50.472;19.744;2023-02-16T17:01:41;98602.97;;;2.82;71.18
50302;BME280;36550;50.472;19.744;2023-02-16T17:04:27;98602.30;;;2.76;71.32
50302;BME280;36550;50.472;19.744;2023-02-16T17:07:11;98603.52;;;2.73;71.62